sensor_id;sensor_type;location;lat;lon;timestamp;P1;durP1;ratioP1;P2;durP2;ratioP2
12852;SDS011;6495;51.808;7.478;2022-11-06T00:01:03;5.45;;;3.10;;
12852;SDS011;6495;51.808;7.478;2022-11-06T00:03:33;5.18;;;3.08;;
12852;SDS011;6495;51.808;7.478;2022-11-06T00:06:04;7.82;;;3.10;;
12852;SDS011;6495;51.808;7.478;2022-11-06T00:08:50;4.03;;;2.95;;
12852;SDS011;6495;51.808;7.478;2022-11-06T00:11:18;5.35;;;2.70;;
12852;SDS011;6495;51.808;7.478;2022-11-06T00:13:47;5.57;;;3.05;;
12852;SDS011;6495;51.808;7.478;2022-11-06T00:16:17;4.43;;;3.25;;
12852;SDS011;6495;51.808;7.478;2022-11-06T00:18:48;6.47;;;3.17;;
12852;SDS011;6495;51.808;7.478;2022-11-06T00:21:17;5.38;;;3.40;;
12852;SDS011;6495;51.808;7.478;2022-11-06T00:23:48;4.65;;;2.67;;
12852;SDS011;6495;51.808;7.478;2022-11-06T00:26:18;5.10;;;2.73;;
12852;SDS011;6495;51.808;7.478;2022-11-06T00:28:50;5.28;;;2.83;;
12852;SDS011;6495;51.808;7.478;2022-11-06T00:31:20;5.03;;;2.60;;
12852;SDS011;6495;51.808;7.478;2022-11-06T00:33:53;5.93;;;2.78;;
12852;SDS011;6495;51.808;7.478;2022-11-06T00:36:23;7.40;;;3.50;;
12852;SDS011;6495;51.808;7.478;2022-11-06T00:38:52;5.50;;;3.28;;
12852;SDS011;6495;51.808;7.478;2022-11-06T00:41:22;4.90;;;2.40;;
12852;SDS011;6495;51.808;7.478;2022-11-06T00:43:51;3.63;;;2.70;;
12852;SDS011;6495;51.808;7.478;2022-11-06T00:46:22;3.90;;;3.08;;
12852;SDS011;6495;51.808;7.478;2022-11-06T00:48:50;3.92;;;2.90;;
12852;SDS011;6495;51.808;7.478;2022-11-06T00:51:22;4.43;;;2.53;;
12852;SDS011;6495;51.808;7.478;2022-11-06T00:53:54;8.15;;;3.00;;
12852;SDS011;6495;51.808;7.478;2022-11-06T00:56:24;3.15;;;2.45;;
12852;SDS011;6495;51.808;7.478;2022-11-06T00:58:53;6.33;;;3.17;;
12852;SDS011;6495;51.808;7.478;2022-11-06T01:01:22;4.68;;;2.85;;
12852;SDS011;6495;51.808;7.478;2022-11-06T01:03:56;5.38;;;2.85;;
12852;SDS011;6495;51.808;7.478;2022-11-06T01:06:27;3.80;;;2.78;;
12852;SDS011;6495;51.808;7.478;2022-11-06T01:08:57;6.88;;;2.90;;
12852;SDS011;6495;51.808;7.478;2022-11-06T01:11:27;5.22;;;2.95;;
12852;SDS011;6495;51.808;7.478;2022-11-06T01:14:19;5.87;;;3.10;;
12852;SDS011;6495;51.808;7.478;2022-11-06T01:16:49;3.53;;;2.73;;
12852;SDS011;6495;51.808;7.478;2022-11-06T01:19:19;3.63;;;2.60;;
12852;SDS011;6495;51.808;7.478;2022-11-06T01:21:49;4.20;;;2.60;;
12852;SDS011;6495;51.808;7.478;2022-11-06T01:24:20;5.95;;;2.70;;
12852;SDS011;6495;51.808;7.478;2022-11-06T01:26:51;3.70;;;2.77;;
12852;SDS011;6495;51.808;7.478;2022-11-06T01:29:40;4.30;;;2.55;;
12852;SDS011;6495;51.808;7.478;2022-11-06T01:32:09;3.63;;;2.78;;
12852;SDS011;6495;51.808;7.478;2022-11-06T01:34:38;4.20;;;2.15;;
12852;SDS011;6495;51.808;7.478;2022-11-06T01:37:06;3.45;;;2.25;;
12852;SDS011;6495;51.808;7.478;2022-11-06T01:39:40;4.10;;;2.50;;
12852;SDS011;6495;51.808;7.478;2022-11-06T01:42:08;4.77;;;2.87;;
12852;SDS011;6495;51.808;7.478;2022-11-06T01:48:03;2.87;;;2.30;;
12852;SDS011;6495;51.808;7.478;2022-11-06T01:50:33;2.25;;;1.95;;
12852;SDS011;6495;51.808;7.478;2022-11-06T01:53:01;3.25;;;2.50;;
12852;SDS011;6495;51.808;7.478;2022-11-06T01:55:31;4.10;;;2.42;;
12852;SDS011;6495;51.808;7.478;2022-11-06T01:58:06;2.63;;;2.38;;
12852;SDS011;6495;51.808;7.478;2022-11-06T02:00:39;5.38;;;2.35;;
12852;SDS011;6495;51.808;7.478;2022-11-06T02:03:08;3.33;;;2.03;;
12852;SDS011;6495;51.808;7.478;2022-11-06T02:05:40;5.40;;;2.40;;
12852;SDS011;6495;51.808;7.478;2022-11-06T02:08:11;2.17;;;1.97;;
12852;SDS011;6495;51.808;7.478;2022-11-06T02:10:42;3.13;;;2.10;;
12852;SDS011;6495;51.808;7.478;2022-11-06T02:13:15;3.97;;;2.03;;
12852;SDS011;6495;51.808;7.478;2022-11-06T02:16:02;5.27;;;2.27;;
12852;SDS011;6495;51.808;7.478;2022-11-06T02:18:46;2.23;;;2.03;;
12852;SDS011;6495;51.808;7.478;2022-11-06T02:21:52;4.10;;;2.13;;
12852;SDS011;6495;51.808;7.478;2022-11-06T02:24:54;3.13;;;1.97;;
12852;SDS011;6495;51.808;7.478;2022-11-06T02:27:40;2.70;;;1.80;;
12852;SDS011;6495;51.808;7.478;2022-11-06T02:30:13;4.83;;;2.17;;
12852;SDS011;6495;51.808;7.478;2022-11-06T02:32:44;4.53;;;2.17;;
12852;SDS011;6495;51.808;7.478;2022-11-06T02:35:21;3.07;;;1.93;;
12852;SDS011;6495;51.808;7.478;2022-11-06T02:37:56;3.77;;;2.00;;
12852;SDS011;6495;51.808;7.478;2022-11-06T02:40:31;2.95;;;2.28;;
12852;SDS011;6495;51.808;7.478;2022-11-06T02:43:07;3.17;;;1.98;;
12852;SDS011;6495;51.808;7.478;2022-11-06T02:45:38;3.50;;;2.30;;
12852;SDS011;6495;51.808;7.478;2022-11-06T02:48:12;4.77;;;2.57;;
12852;SDS011;6495;51.808;7.478;2022-11-06T02:50:46;4.43;;;2.23;;
12852;SDS011;6495;51.808;7.478;2022-11-06T02:53:18;4.97;;;1.83;;
12852;SDS011;6495;51.808;7.478;2022-11-06T02:55:51;3.37;;;1.80;;
12852;SDS011;6495;51.808;7.478;2022-11-06T02:58:27;3.07;;;1.80;;
12852;SDS011;6495;51.808;7.478;2022-11-06T03:01:05;2.93;;;2.00;;
12852;SDS011;6495;51.808;7.478;2022-11-06T03:03:39;3.33;;;2.10;;
12852;SDS011;6495;51.808;7.478;2022-11-06T03:06:13;4.93;;;1.97;;
12852;SDS011;6495;51.808;7.478;2022-11-06T03:08:55;2.07;;;1.87;;
12852;SDS011;6495;51.808;7.478;2022-11-06T03:11:49;3.43;;;1.87;;
12852;SDS011;6495;51.808;7.478;2022-11-06T03:14:28;3.10;;;2.03;;
12852;SDS011;6495;51.808;7.478;2022-11-06T03:17:04;5.37;;;1.83;;
12852;SDS011;6495;51.808;7.478;2022-11-06T03:19:43;3.20;;;1.70;;
12852;SDS011;6495;51.808;7.478;2022-11-06T03:22:20;3.73;;;2.03;;
12852;SDS011;6495;51.808;7.478;2022-11-06T03:24:54;2.27;;;1.90;;
12852;SDS011;6495;51.808;7.478;2022-11-06T03:27:31;3.40;;;1.80;;
12852;SDS011;6495;51.808;7.478;2022-11-06T03:30:07;2.83;;;1.73;;
12852;SDS011;6495;51.808;7.478;2022-11-06T03:32:43;6.47;;;1.70;;
12852;SDS011;6495;51.808;7.478;2022-11-06T03:35:18;4.80;;;1.80;;
12852;SDS011;6495;51.808;7.478;2022-11-06T03:37:55;3.53;;;1.70;;
12852;SDS011;6495;51.808;7.478;2022-11-06T03:40:31;4.73;;;2.07;;
12852;SDS011;6495;51.808;7.478;2022-11-06T03:43:05;5.50;;;2.27;;
12852;SDS011;6495;51.808;7.478;2022-11-06T03:45:40;3.10;;;1.67;;
12852;SDS011;6495;51.808;7.478;2022-11-06T03:48:12;3.23;;;1.53;;
12852;SDS011;6495;51.808;7.478;2022-11-06T03:50:48;2.87;;;1.63;;
12852;SDS011;6495;51.808;7.478;2022-11-06T03:53:25;3.50;;;1.53;;
12852;SDS011;6495;51.808;7.478;2022-11-06T03:56:00;3.03;;;1.63;;
12852;SDS011;6495;51.808;7.478;2022-11-06T03:58:35;4.87;;;2.00;;
12852;SDS011;6495;51.808;7.478;2022-11-06T04:01:09;2.63;;;1.40;;
12852;SDS011;6495;51.808;7.478;2022-11-06T04:03:41;3.20;;;1.60;;
12852;SDS011;6495;51.808;7.478;2022-11-06T04:06:16;3.77;;;1.60;;
12852;SDS011;6495;51.808;7.478;2022-11-06T04:08:49;2.37;;;1.30;;
12852;SDS011;6495;51.808;7.478;2022-11-06T04:11:37;5.23;;;1.70;;
12852;SDS011;6495;51.808;7.478;2022-11-06T04:14:26;3.33;;;1.60;;
12852;SDS011;6495;51.808;7.478;2022-11-06T04:16:59;8.03;;;1.67;;
12852;SDS011;6495;51.808;7.478;2022-11-06T04:19:32;4.87;;;2.13;;
12852;SDS011;6495;51.808;7.478;2022-11-06T04:22:04;2.57;;;1.70;;
12852;SDS011;6495;51.808;7.478;2022-11-06T04:24:54;2.97;;;1.77;;
12852;SDS011;6495;51.808;7.478;2022-11-06T04:30:57;2.67;;;1.23;;
12852;SDS011;6495;51.808;7.478;2022-11-06T04:33:39;5.53;;;1.40;;
12852;SDS011;6495;51.808;7.478;2022-11-06T04:36:17;3.23;;;1.83;;
12852;SDS011;6495;51.808;7.478;2022-11-06T04:38:58;5.73;;;1.73;;
12852;SDS011;6495;51.808;7.478;2022-11-06T04:41:33;2.50;;;1.57;;
12852;SDS011;6495;51.808;7.478;2022-11-06T04:44:08;3.37;;;1.70;;
12852;SDS011;6495;51.808;7.478;2022-11-06T04:46:46;3.40;;;1.70;;
12852;SDS011;6495;51.808;7.478;2022-11-06T04:49:22;3.20;;;1.40;;
12852;SDS011;6495;51.808;7.478;2022-11-06T04:51:54;3.73;;;1.40;;
12852;SDS011;6495;51.808;7.478;2022-11-06T04:54:24;1.70;;;1.50;;
12852;SDS011;6495;51.808;7.478;2022-11-06T04:56:55;4.63;;;1.50;;
12852;SDS011;6495;51.808;7.478;2022-11-06T04:59:25;3.77;;;1.70;;
12852;SDS011;6495;51.808;7.478;2022-11-06T05:01:53;1.20;;;1.10;;
12852;SDS011;6495;51.808;7.478;2022-11-06T05:04:23;1.70;;;1.60;;
12852;SDS011;6495;51.808;7.478;2022-11-06T05:06:51;1.77;;;1.33;;
12852;SDS011;6495;51.808;7.478;2022-11-06T05:09:19;3.40;;;1.27;;
12852;SDS011;6495;51.808;7.478;2022-11-06T05:11:47;1.37;;;1.27;;
12852;SDS011;6495;51.808;7.478;2022-11-06T05:14:15;4.50;;;1.47;;
12852;SDS011;6495;51.808;7.478;2022-11-06T05:16:43;1.90;;;1.40;;
12852;SDS011;6495;51.808;7.478;2022-11-06T05:19:11;3.20;;;1.37;;
12852;SDS011;6495;51.808;7.478;2022-11-06T05:21:40;1.90;;;1.37;;
12852;SDS011;6495;51.808;7.478;2022-11-06T05:24:26;5.83;;;1.70;;
12852;SDS011;6495;51.808;7.478;2022-11-06T05:26:54;4.40;;;1.37;;
12852;SDS011;6495;51.808;7.478;2022-11-06T05:29:25;2.97;;;1.40;;
12852;SDS011;6495;51.808;7.478;2022-11-06T05:31:53;2.80;;;1.40;;
12852;SDS011;6495;51.808;7.478;2022-11-06T05:34:21;5.03;;;1.63;;
12852;SDS011;6495;51.808;7.478;2022-11-06T05:36:50;2.50;;;1.43;;
12852;SDS011;6495;51.808;7.478;2022-11-06T05:39:18;1.47;;;1.03;;
12852;SDS011;6495;51.808;7.478;2022-11-06T05:41:46;2.23;;;1.20;;
12852;SDS011;6495;51.808;7.478;2022-11-06T05:44:14;3.90;;;1.43;;
12852;SDS011;6495;51.808;7.478;2022-11-06T05:46:42;2.70;;;1.33;;
12852;SDS011;6495;51.808;7.478;2022-11-06T05:49:15;3.80;;;1.60;;
12852;SDS011;6495;51.808;7.478;2022-11-06T05:51:44;2.20;;;1.23;;
12852;SDS011;6495;51.808;7.478;2022-11-06T05:54:13;2.37;;;1.10;;
12852;SDS011;6495;51.808;7.478;2022-11-06T05:56:41;2.47;;;1.40;;
12852;SDS011;6495;51.808;7.478;2022-11-06T05:59:09;5.00;;;1.43;;
12852;SDS011;6495;51.808;7.478;2022-11-06T06:01:38;1.70;;;0.97;;
12852;SDS011;6495;51.808;7.478;2022-11-06T06:04:06;2.77;;;1.43;;
12852;SDS011;6495;51.808;7.478;2022-11-06T06:06:34;2.03;;;1.30;;
12852;SDS011;6495;51.808;7.478;2022-11-06T06:09:03;2.20;;;1.30;;
12852;SDS011;6495;51.808;7.478;2022-11-06T06:11:32;1.40;;;1.10;;
12852;SDS011;6495;51.808;7.478;2022-11-06T06:14:00;2.03;;;1.40;;
12852;SDS011;6495;51.808;7.478;2022-11-06T06:16:29;3.17;;;1.10;;
12852;SDS011;6495;51.808;7.478;2022-11-06T06:18:57;3.42;;;1.02;;
12852;SDS011;6495;51.808;7.478;2022-11-06T06:21:25;2.07;;;1.17;;
12852;SDS011;6495;51.808;7.478;2022-11-06T06:23:53;3.23;;;1.23;;
12852;SDS011;6495;51.808;7.478;2022-11-06T06:26:21;3.03;;;1.50;;
12852;SDS011;6495;51.808;7.478;2022-11-06T06:28:50;1.73;;;1.10;;
12852;SDS011;6495;51.808;7.478;2022-11-06T06:31:18;2.57;;;1.10;;
12852;SDS011;6495;51.808;7.478;2022-11-06T06:33:47;3.47;;;1.33;;
12852;SDS011;6495;51.808;7.478;2022-11-06T06:36:15;4.20;;;1.60;;
12852;SDS011;6495;51.808;7.478;2022-11-06T06:38:43;1.93;;;1.30;;
12852;SDS011;6495;51.808;7.478;2022-11-06T06:41:11;6.33;;;1.50;;
12852;SDS011;6495;51.808;7.478;2022-11-06T06:43:39;2.83;;;1.20;;
12852;SDS011;6495;51.808;7.478;2022-11-06T06:46:08;3.60;;;1.57;;
12852;SDS011;6495;51.808;7.478;2022-11-06T06:48:36;2.37;;;1.30;;
12852;SDS011;6495;51.808;7.478;2022-11-06T06:51:05;1.63;;;1.30;;
12852;SDS011;6495;51.808;7.478;2022-11-06T06:53:34;5.43;;;1.40;;
12852;SDS011;6495;51.808;7.478;2022-11-06T06:56:03;2.00;;;1.33;;
12852;SDS011;6495;51.808;7.478;2022-11-06T06:58:31;1.50;;;1.10;;
12852;SDS011;6495;51.808;7.478;2022-11-06T07:01:00;2.80;;;1.50;;
12852;SDS011;6495;51.808;7.478;2022-11-06T07:03:32;2.70;;;1.20;;
12852;SDS011;6495;51.808;7.478;2022-11-06T07:06:00;2.43;;;1.30;;
12852;SDS011;6495;51.808;7.478;2022-11-06T07:08:28;2.00;;;1.43;;
12852;SDS011;6495;51.808;7.478;2022-11-06T07:10:58;1.97;;;1.20;;
12852;SDS011;6495;51.808;7.478;2022-11-06T07:13:26;1.47;;;1.10;;
12852;SDS011;6495;51.808;7.478;2022-11-06T07:16:01;3.87;;;1.60;;
12852;SDS011;6495;51.808;7.478;2022-11-06T07:18:30;1.57;;;1.20;;
12852;SDS011;6495;51.808;7.478;2022-11-06T07:20:59;2.13;;;1.50;;
12852;SDS011;6495;51.808;7.478;2022-11-06T07:23:32;5.30;;;1.50;;
12852;SDS011;6495;51.808;7.478;2022-11-06T07:26:01;2.13;;;1.30;;
12852;SDS011;6495;51.808;7.478;2022-11-06T07:28:30;4.00;;;1.40;;
12852;SDS011;6495;51.808;7.478;2022-11-06T07:31:00;3.17;;;1.20;;
12852;SDS011;6495;51.808;7.478;2022-11-06T07:33:33;5.27;;;1.63;;
12852;SDS011;6495;51.808;7.478;2022-11-06T07:36:02;3.43;;;1.40;;
12852;SDS011;6495;51.808;7.478;2022-11-06T07:38:32;3.70;;;1.27;;
12852;SDS011;6495;51.808;7.478;2022-11-06T07:41:01;5.63;;;1.70;;
12852;SDS011;6495;51.808;7.478;2022-11-06T07:43:31;5.10;;;1.60;;
12852;SDS011;6495;51.808;7.478;2022-11-06T07:45:59;4.27;;;1.57;;
12852;SDS011;6495;51.808;7.478;2022-11-06T07:48:29;4.77;;;1.57;;
12852;SDS011;6495;51.808;7.478;2022-11-06T07:51:00;3.37;;;1.13;;
12852;SDS011;6495;51.808;7.478;2022-11-06T07:53:30;4.80;;;1.53;;
12852;SDS011;6495;51.808;7.478;2022-11-06T07:55:59;1.77;;;1.30;;
12852;SDS011;6495;51.808;7.478;2022-11-06T07:58:27;2.53;;;1.40;;
12852;SDS011;6495;51.808;7.478;2022-11-06T08:00:56;1.00;;;0.90;;
12852;SDS011;6495;51.808;7.478;2022-11-06T08:03:25;4.47;;;1.30;;
12852;SDS011;6495;51.808;7.478;2022-11-06T08:05:55;7.25;;;1.63;;
12852;SDS011;6495;51.808;7.478;2022-11-06T08:08:26;1.38;;;1.27;;
12852;SDS011;6495;51.808;7.478;2022-11-06T08:10:54;1.30;;;1.15;;
12852;SDS011;6495;51.808;7.478;2022-11-06T08:13:22;2.40;;;1.10;;
12852;SDS011;6495;51.808;7.478;2022-11-06T08:15:51;2.30;;;1.00;;
12852;SDS011;6495;51.808;7.478;2022-11-06T08:18:19;2.28;;;1.13;;
12852;SDS011;6495;51.808;7.478;2022-11-06T08:20:51;3.05;;;0.93;;
12852;SDS011;6495;51.808;7.478;2022-11-06T08:23:20;1.20;;;1.10;;
12852;SDS011;6495;51.808;7.478;2022-11-06T08:25:49;3.70;;;1.15;;
12852;SDS011;6495;51.808;7.478;2022-11-06T08:28:21;3.35;;;1.52;;
12852;SDS011;6495;51.808;7.478;2022-11-06T08:30:49;2.30;;;1.30;;
12852;SDS011;6495;51.808;7.478;2022-11-06T08:33:21;2.40;;;1.15;;
12852;SDS011;6495;51.808;7.478;2022-11-06T08:35:53;2.88;;;0.95;;
12852;SDS011;6495;51.808;7.478;2022-11-06T08:39:29;1.75;;;1.02;;
12852;SDS011;6495;51.808;7.478;2022-11-06T08:41:51;1.50;;;1.05;;
12852;SDS011;6495;51.808;7.478;2022-11-06T08:44:19;4.13;;;1.23;;
12852;SDS011;6495;51.808;7.478;2022-11-06T08:46:47;3.38;;;1.50;;
12852;SDS011;6495;51.808;7.478;2022-11-06T08:49:17;1.05;;;0.90;;
12852;SDS011;6495;51.808;7.478;2022-11-06T08:51:46;5.07;;;1.33;;
12852;SDS011;6495;51.808;7.478;2022-11-06T08:54:14;1.27;;;1.00;;
12852;SDS011;6495;51.808;7.478;2022-11-06T08:56:42;2.55;;;1.45;;
12852;SDS011;6495;51.808;7.478;2022-11-06T08:59:15;2.08;;;1.00;;
12852;SDS011;6495;51.808;7.478;2022-11-06T09:01:43;3.38;;;1.40;;
12852;SDS011;6495;51.808;7.478;2022-11-06T09:04:11;2.38;;;1.17;;
12852;SDS011;6495;51.808;7.478;2022-11-06T09:06:39;0.90;;;0.80;;
12852;SDS011;6495;51.808;7.478;2022-11-06T09:09:08;2.45;;;0.93;;
12852;SDS011;6495;51.808;7.478;2022-11-06T09:11:36;6.95;;;1.38;;
12852;SDS011;6495;51.808;7.478;2022-11-06T09:14:04;1.40;;;1.20;;
12852;SDS011;6495;51.808;7.478;2022-11-06T09:16:34;1.17;;;0.77;;
12852;SDS011;6495;51.808;7.478;2022-11-06T09:19:02;2.83;;;1.23;;
12852;SDS011;6495;51.808;7.478;2022-11-06T09:21:30;1.67;;;1.00;;
12852;SDS011;6495;51.808;7.478;2022-11-06T09:23:58;0.82;;;0.73;;
12852;SDS011;6495;51.808;7.478;2022-11-06T09:26:26;3.55;;;1.15;;
12852;SDS011;6495;51.808;7.478;2022-11-06T09:28:54;3.10;;;0.95;;
12852;SDS011;6495;51.808;7.478;2022-11-06T09:31:22;0.93;;;0.90;;
12852;SDS011;6495;51.808;7.478;2022-11-06T09:33:52;3.70;;;0.90;;
12852;SDS011;6495;51.808;7.478;2022-11-06T09:36:20;1.63;;;0.90;;
12852;SDS011;6495;51.808;7.478;2022-11-06T09:38:49;4.85;;;1.50;;
12852;SDS011;6495;51.808;7.478;2022-11-06T09:41:17;4.40;;;1.20;;
12852;SDS011;6495;51.808;7.478;2022-11-06T09:43:57;2.88;;;1.30;;
12852;SDS011;6495;51.808;7.478;2022-11-06T09:46:45;1.48;;;1.00;;
12852;SDS011;6495;51.808;7.478;2022-11-06T09:49:17;2.35;;;1.17;;
12852;SDS011;6495;51.808;7.478;2022-11-06T09:51:54;1.15;;;1.00;;
12852;SDS011;6495;51.808;7.478;2022-11-06T09:54:30;3.13;;;1.30;;
12852;SDS011;6495;51.808;7.478;2022-11-06T09:57:05;3.72;;;1.10;;
12852;SDS011;6495;51.808;7.478;2022-11-06T09:59:44;2.78;;;0.90;;
12852;SDS011;6495;51.808;7.478;2022-11-06T10:02:18;0.93;;;0.88;;
12852;SDS011;6495;51.808;7.478;2022-11-06T10:04:59;0.95;;;0.80;;
12852;SDS011;6495;51.808;7.478;2022-11-06T10:07:40;1.65;;;0.95;;
12852;SDS011;6495;51.808;7.478;2022-11-06T10:10:13;1.05;;;0.95;;
12852;SDS011;6495;51.808;7.478;2022-11-06T10:12:52;3.08;;;0.95;;
12852;SDS011;6495;51.808;7.478;2022-11-06T10:15:44;2.58;;;1.30;;
12852;SDS011;6495;51.808;7.478;2022-11-06T10:18:22;4.05;;;1.50;;
12852;SDS011;6495;51.808;7.478;2022-11-06T10:21:03;2.58;;;1.33;;
12852;SDS011;6495;51.808;7.478;2022-11-06T10:23:41;3.78;;;1.27;;
12852;SDS011;6495;51.808;7.478;2022-11-06T10:26:16;1.98;;;1.20;;
12852;SDS011;6495;51.808;7.478;2022-11-06T10:28:55;1.45;;;1.30;;
12852;SDS011;6495;51.808;7.478;2022-11-06T10:31:51;5.07;;;1.50;;
12852;SDS011;6495;51.808;7.478;2022-11-06T10:34:38;4.53;;;1.35;;
12852;SDS011;6495;51.808;7.478;2022-11-06T10:37:14;5.85;;;1.40;;
12852;SDS011;6495;51.808;7.478;2022-11-06T10:39:48;2.03;;;1.10;;
12852;SDS011;6495;51.808;7.478;2022-11-06T10:42:18;1.95;;;1.27;;
12852;SDS011;6495;51.808;7.478;2022-11-06T10:45:03;4.10;;;1.20;;
12852;SDS011;6495;51.808;7.478;2022-11-06T10:47:41;2.13;;;0.90;;
12852;SDS011;6495;51.808;7.478;2022-11-06T10:50:15;1.80;;;1.15;;
12852;SDS011;6495;51.808;7.478;2022-11-06T10:52:56;1.30;;;1.20;;
12852;SDS011;6495;51.808;7.478;2022-11-06T10:58:56;1.52;;;1.15;;
12852;SDS011;6495;51.808;7.478;2022-11-06T11:01:25;2.88;;;1.27;;
12852;SDS011;6495;51.808;7.478;2022-11-06T11:03:53;2.88;;;1.42;;
12852;SDS011;6495;51.808;7.478;2022-11-06T11:06:21;1.42;;;1.10;;
12852;SDS011;6495;51.808;7.478;2022-11-06T11:08:51;2.40;;;1.20;;
12852;SDS011;6495;51.808;7.478;2022-11-06T11:11:20;2.30;;;1.58;;
12852;SDS011;6495;51.808;7.478;2022-11-06T11:16:41;3.15;;;1.35;;
12852;SDS011;6495;51.808;7.478;2022-11-06T11:19:21;2.53;;;1.30;;
12852;SDS011;6495;51.808;7.478;2022-11-06T11:21:53;2.53;;;1.27;;
12852;SDS011;6495;51.808;7.478;2022-11-06T11:24:25;3.97;;;1.20;;
12852;SDS011;6495;51.808;7.478;2022-11-06T11:26:54;3.45;;;1.38;;
12852;SDS011;6495;51.808;7.478;2022-11-06T11:29:28;3.47;;;1.17;;
12852;SDS011;6495;51.808;7.478;2022-11-06T11:32:00;3.30;;;1.55;;
12852;SDS011;6495;51.808;7.478;2022-11-06T11:34:33;3.83;;;1.38;;
12852;SDS011;6495;51.808;7.478;2022-11-06T11:37:21;1.67;;;1.13;;
12852;SDS011;6495;51.808;7.478;2022-11-06T11:39:54;2.70;;;1.08;;
12852;SDS011;6495;51.808;7.478;2022-11-06T11:42:48;2.95;;;1.10;;
12852;SDS011;6495;51.808;7.478;2022-11-06T11:45:17;1.70;;;1.02;;
12852;SDS011;6495;51.808;7.478;2022-11-06T11:47:48;3.17;;;1.30;;
12852;SDS011;6495;51.808;7.478;2022-11-06T11:50:23;1.77;;;1.20;;
12852;SDS011;6495;51.808;7.478;2022-11-06T11:52:56;3.47;;;0.98;;
12852;SDS011;6495;51.808;7.478;2022-11-06T11:55:38;2.83;;;1.40;;
12852;SDS011;6495;51.808;7.478;2022-11-06T11:58:14;2.38;;;1.17;;
12852;SDS011;6495;51.808;7.478;2022-11-06T12:00:51;3.20;;;1.10;;
12852;SDS011;6495;51.808;7.478;2022-11-06T12:03:23;1.35;;;1.20;;
12852;SDS011;6495;51.808;7.478;2022-11-06T12:06:04;1.30;;;1.10;;
12852;SDS011;6495;51.808;7.478;2022-11-06T12:08:36;1.70;;;1.23;;
12852;SDS011;6495;51.808;7.478;2022-11-06T12:11:13;1.25;;;1.10;;
12852;SDS011;6495;51.808;7.478;2022-11-06T12:17:04;1.60;;;0.82;;
12852;SDS011;6495;51.808;7.478;2022-11-06T12:19:41;1.40;;;1.30;;
12852;SDS011;6495;51.808;7.478;2022-11-06T12:22:20;1.63;;;1.02;;
12852;SDS011;6495;51.808;7.478;2022-11-06T12:24:56;3.33;;;1.08;;
12852;SDS011;6495;51.808;7.478;2022-11-06T12:27:32;1.30;;;1.08;;
12852;SDS011;6495;51.808;7.478;2022-11-06T12:30:08;3.53;;;1.20;;
12852;SDS011;6495;51.808;7.478;2022-11-06T12:32:40;1.42;;;1.10;;
12852;SDS011;6495;51.808;7.478;2022-11-06T12:35:23;1.73;;;0.98;;
12852;SDS011;6495;51.808;7.478;2022-11-06T12:38:04;2.22;;;1.27;;
12852;SDS011;6495;51.808;7.478;2022-11-06T12:40:46;3.05;;;1.60;;
12852;SDS011;6495;51.808;7.478;2022-11-06T12:43:24;1.88;;;1.27;;
12852;SDS011;6495;51.808;7.478;2022-11-06T12:46:09;1.00;;;0.90;;
12852;SDS011;6495;51.808;7.478;2022-11-06T12:52:07;2.42;;;1.17;;
12852;SDS011;6495;51.808;7.478;2022-11-06T12:54:55;1.55;;;1.20;;
12852;SDS011;6495;51.808;7.478;2022-11-06T12:57:48;1.85;;;1.27;;
12852;SDS011;6495;51.808;7.478;2022-11-06T13:00:35;1.60;;;1.00;;
12852;SDS011;6495;51.808;7.478;2022-11-06T13:03:24;4.45;;;1.60;;
12852;SDS011;6495;51.808;7.478;2022-11-06T13:06:08;1.67;;;0.93;;
12852;SDS011;6495;51.808;7.478;2022-11-06T13:08:47;2.30;;;1.20;;
12852;SDS011;6495;51.808;7.478;2022-11-06T13:11:24;1.65;;;0.98;;
12852;SDS011;6495;51.808;7.478;2022-11-06T13:14:06;2.85;;;1.10;;
12852;SDS011;6495;51.808;7.478;2022-11-06T13:16:50;2.60;;;1.23;;
12852;SDS011;6495;51.808;7.478;2022-11-06T13:19:28;2.10;;;1.52;;
12852;SDS011;6495;51.808;7.478;2022-11-06T13:22:12;1.80;;;1.00;;
12852;SDS011;6495;51.808;7.478;2022-11-06T13:24:51;1.30;;;1.00;;
12852;SDS011;6495;51.808;7.478;2022-11-06T13:27:29;2.20;;;1.27;;
12852;SDS011;6495;51.808;7.478;2022-11-06T13:30:10;2.70;;;1.50;;
12852;SDS011;6495;51.808;7.478;2022-11-06T13:32:57;4.13;;;1.58;;
12852;SDS011;6495;51.808;7.478;2022-11-06T13:35:35;2.30;;;1.10;;
12852;SDS011;6495;51.808;7.478;2022-11-06T13:38:10;1.42;;;1.33;;
12852;SDS011;6495;51.808;7.478;2022-11-06T13:40:44;2.55;;;1.35;;
12852;SDS011;6495;51.808;7.478;2022-11-06T13:43:19;2.13;;;1.17;;
12852;SDS011;6495;51.808;7.478;2022-11-06T13:45:55;3.35;;;1.55;;
12852;SDS011;6495;51.808;7.478;2022-11-06T13:48:35;1.77;;;1.23;;
12852;SDS011;6495;51.808;7.478;2022-11-06T13:51:18;1.40;;;1.20;;
12852;SDS011;6495;51.808;7.478;2022-11-06T13:53:55;1.83;;;1.02;;
12852;SDS011;6495;51.808;7.478;2022-11-06T14:00:06;2.05;;;1.40;;
12852;SDS011;6495;51.808;7.478;2022-11-06T14:03:08;2.17;;;1.33;;
12852;SDS011;6495;51.808;7.478;2022-11-06T14:06:25;2.65;;;1.23;;
12852;SDS011;6495;51.808;7.478;2022-11-06T14:08:57;1.50;;;0.80;;
12852;SDS011;6495;51.808;7.478;2022-11-06T14:11:31;1.98;;;1.00;;
12852;SDS011;6495;51.808;7.478;2022-11-06T14:14:05;1.77;;;1.20;;
12852;SDS011;6495;51.808;7.478;2022-11-06T14:16:39;3.55;;;1.23;;
12852;SDS011;6495;51.808;7.478;2022-11-06T14:19:12;2.88;;;1.35;;
12852;SDS011;6495;51.808;7.478;2022-11-06T14:21:52;1.65;;;1.00;;
12852;SDS011;6495;51.808;7.478;2022-11-06T14:24:41;2.78;;;1.20;;
12852;SDS011;6495;51.808;7.478;2022-11-06T14:27:11;1.52;;;0.77;;
12852;SDS011;6495;51.808;7.478;2022-11-06T14:30:37;3.28;;;0.80;;
12852;SDS011;6495;51.808;7.478;2022-11-06T14:36:30;2.85;;;1.05;;
12852;SDS011;6495;51.808;7.478;2022-11-06T14:39:07;3.90;;;1.13;;
12852;SDS011;6495;51.808;7.478;2022-11-06T14:44:41;2.45;;;1.20;;
12852;SDS011;6495;51.808;7.478;2022-11-06T14:47:22;4.43;;;1.48;;
12852;SDS011;6495;51.808;7.478;2022-11-06T14:49:59;2.53;;;1.17;;
12852;SDS011;6495;51.808;7.478;2022-11-06T14:52:41;3.40;;;1.08;;
12852;SDS011;6495;51.808;7.478;2022-11-06T14:55:22;5.10;;;1.08;;
12852;SDS011;6495;51.808;7.478;2022-11-06T14:57:56;1.27;;;1.17;;
12852;SDS011;6495;51.808;7.478;2022-11-06T15:00:46;6.28;;;1.48;;
12852;SDS011;6495;51.808;7.478;2022-11-06T15:03:30;1.02;;;0.95;;
12852;SDS011;6495;51.808;7.478;2022-11-06T15:06:06;2.13;;;1.30;;
12852;SDS011;6495;51.808;7.478;2022-11-06T15:09:02;1.67;;;1.20;;
12852;SDS011;6495;51.808;7.478;2022-11-06T15:17:23;2.03;;;1.42;;
12852;SDS011;6495;51.808;7.478;2022-11-06T15:19:58;2.00;;;1.05;;
12852;SDS011;6495;51.808;7.478;2022-11-06T15:25:48;1.33;;;1.10;;
12852;SDS011;6495;51.808;7.478;2022-11-06T15:28:31;2.38;;;1.45;;
12852;SDS011;6495;51.808;7.478;2022-11-06T15:31:11;3.47;;;1.15;;
12852;SDS011;6495;51.808;7.478;2022-11-06T15:33:50;2.42;;;1.02;;
12852;SDS011;6495;51.808;7.478;2022-11-06T15:36:26;2.05;;;1.45;;
12852;SDS011;6495;51.808;7.478;2022-11-06T15:39:00;1.40;;;1.10;;
12852;SDS011;6495;51.808;7.478;2022-11-06T15:41:49;3.85;;;1.40;;
12852;SDS011;6495;51.808;7.478;2022-11-06T15:44:18;3.50;;;1.30;;
12852;SDS011;6495;51.808;7.478;2022-11-06T15:46:52;1.65;;;1.17;;
12852;SDS011;6495;51.808;7.478;2022-11-06T15:49:22;1.50;;;1.10;;
12852;SDS011;6495;51.808;7.478;2022-11-06T15:51:52;1.45;;;1.25;;
12852;SDS011;6495;51.808;7.478;2022-11-06T15:54:29;6.40;;;1.17;;
12852;SDS011;6495;51.808;7.478;2022-11-06T15:57:06;4.13;;;1.40;;
12852;SDS011;6495;51.808;7.478;2022-11-06T15:59:43;2.42;;;1.42;;
12852;SDS011;6495;51.808;7.478;2022-11-06T16:02:13;2.60;;;1.48;;
12852;SDS011;6495;51.808;7.478;2022-11-06T16:04:44;2.83;;;1.27;;
12852;SDS011;6495;51.808;7.478;2022-11-06T16:07:14;3.55;;;1.45;;
12852;SDS011;6495;51.808;7.478;2022-11-06T16:09:44;1.40;;;1.20;;
12852;SDS011;6495;51.808;7.478;2022-11-06T16:12:17;1.73;;;1.30;;
12852;SDS011;6495;51.808;7.478;2022-11-06T16:14:46;3.13;;;1.45;;
12852;SDS011;6495;51.808;7.478;2022-11-06T16:17:15;2.22;;;1.63;;
12852;SDS011;6495;51.808;7.478;2022-11-06T16:19:49;1.55;;;1.15;;
12852;SDS011;6495;51.808;7.478;2022-11-06T16:22:26;1.25;;;0.95;;